sensor_id;sensor_type;location;lat;lon;timestamp;pressure;altitude;pressure_sealevel;temperature;humidity
74524;BME280;63074;44.696;10.358;2022-09-14T00:01:54;99634.81;;;21.73;87.29
74524;BME280;63074;44.696;10.358;2022-09-14T00:04:20;99641.56;;;21.76;86.96
74524;BME280;63074;44.696;10.358;2022-09-14T00:06:46;99646.88;;;21.72;86.81
74524;BME280;63074;44.696;10.358;2022-09-14T00:09:21;99646.06;;;21.72;86.88
74524;BME280;63074;44.696;10.358;2022-09-14T00:11:47;99654.28;;;21.63;87.24
74524;BME280;63074;44.696;10.358;2022-09-14T00:14:14;99654.06;;;21.51;88.16
74524;BME280;63074;44.696;10.358;2022-09-14T00:16:40;99646.31;;;21.44;89.31
74524;BME280;63074;44.696;10.358;2022-09-14T00:19:21;99650.81;;;21.40;89.79
74524;BME280;63074;44.696;10.358;2022-09-14T00:21:56;99646.31;;;21.36;90.44
74524;BME280;63074;44.696;10.358;2022-09-14T00:24:23;99651.59;;;21.32;91.06
74524;BME280;63074;44.696;10.358;2022-09-14T00:26:49;99649.84;;;21.36;91.42
74524;BME280;63074;44.696;10.358;2022-09-14T00:29:15;99643.63;;;21.53;90.36
74524;BME280;63074;44.696;10.358;2022-09-14T00:31:41;99646.63;;;21.43;91.73
74524;BME280;63074;44.696;10.358;2022-09-14T00:34:08;99643.41;;;21.41;92.04
74524;BME280;63074;44.696;10.358;2022-09-14T00:36:41;99645.50;;;21.44;92.52
74524;BME280;63074;44.696;10.358;2022-09-14T00:39:08;99645.03;;;21.42;92.90
74524;BME280;63074;44.696;10.358;2022-09-14T00:41:35;99636.34;;;21.40;93.25
74524;BME280;63074;44.696;10.358;2022-09-14T00:46:59;99642.41;;;21.28;94.97
74524;BME280;63074;44.696;10.358;2022-09-14T00:49:39;99651.16;;;21.16;95.82
74524;BME280;63074;44.696;10.358;2022-09-14T00:54:43;99623.66;;;21.13;96.05
74524;BME280;63074;44.696;10.358;2022-09-14T00:57:10;99616.28;;;21.05;96.53
74524;BME280;63074;44.696;10.358;2022-09-14T00:59:37;99612.25;;;21.11;96.40
74524;BME280;63074;44.696;10.358;2022-09-14T01:02:04;99601.94;;;21.08;96.07
74524;BME280;63074;44.696;10.358;2022-09-14T01:04:31;99594.56;;;21.08;95.79
74524;BME280;63074;44.696;10.358;2022-09-14T01:12:39;99590.72;;;21.09;95.66
74524;BME280;63074;44.696;10.358;2022-09-14T01:15:24;99595.31;;;21.22;94.80
74524;BME280;63074;44.696;10.358;2022-09-14T01:18:02;99596.13;;;21.32;93.46
74524;BME280;63074;44.696;10.358;2022-09-14T01:20:40;99596.28;;;21.27;93.80
74524;BME280;63074;44.696;10.358;2022-09-14T01:36:59;99564.75;;;21.20;94.71
74524;BME280;63074;44.696;10.358;2022-09-14T01:39:30;99578.19;;;20.24;100.00
74524;BME280;63074;44.696;10.358;2022-09-14T01:41:58;99577.94;;;20.56;99.76
74524;BME280;63074;44.696;10.358;2022-09-14T01:44:29;99579.78;;;20.70;99.92
74524;BME280;63074;44.696;10.358;2022-09-14T01:47:01;99566.09;;;20.61;100.00
74524;BME280;63074;44.696;10.358;2022-09-14T01:49:33;99570.78;;;20.38;100.00
74524;BME280;63074;44.696;10.358;2022-09-14T01:52:21;99573.53;;;20.69;100.00
74524;BME280;63074;44.696;10.358;2022-09-14T01:54:54;99565.38;;;20.78;99.29
74524;BME280;63074;44.696;10.358;2022-09-14T01:57:35;99562.00;;;20.81;99.17
74524;BME280;63074;44.696;10.358;2022-09-14T02:00:09;99566.78;;;20.67;100.00
74524;BME280;63074;44.696;10.358;2022-09-14T02:02:38;99558.84;;;20.56;100.00
74524;BME280;63074;44.696;10.358;2022-09-14T02:05:17;99567.53;;;20.59;100.00
74524;BME280;63074;44.696;10.358;2022-09-14T02:07:43;99577.59;;;20.49;100.00
74524;BME280;63074;44.696;10.358;2022-09-14T02:10:11;99577.41;;;20.46;100.00
74524;BME280;63074;44.696;10.358;2022-09-14T02:12:38;99563.63;;;20.51;100.00
74524;BME280;63074;44.696;10.358;2022-09-14T02:15:05;99560.94;;;20.60;100.00
74524;BME280;63074;44.696;10.358;2022-09-14T02:17:33;99555.50;;;20.60;100.00
74524;BME280;63074;44.696;10.358;2022-09-14T02:20:00;99551.69;;;20.69;98.95
74524;BME280;63074;44.696;10.358;2022-09-14T02:22:28;99560.69;;;20.70;98.49
74524;BME280;63074;44.696;10.358;2022-09-14T02:24:54;99559.00;;;20.91;96.24
74524;BME280;63074;44.696;10.358;2022-09-14T02:27:20;99557.72;;;20.88;96.84
74524;BME280;63074;44.696;10.358;2022-09-14T02:29:45;99560.56;;;20.83;96.29
74524;BME280;63074;44.696;10.358;2022-09-14T02:38:06;99552.84;;;20.77;97.14
74524;BME280;63074;44.696;10.358;2022-09-14T02:40:39;99545.16;;;20.79;96.83
74524;BME280;63074;44.696;10.358;2022-09-14T02:46:14;99545.34;;;20.91;94.71
74524;BME280;63074;44.696;10.358;2022-09-14T02:48:57;99541.63;;;20.78;96.51
74524;BME280;63074;44.696;10.358;2022-09-14T02:51:47;99542.44;;;20.48;100.00
74524;BME280;63074;44.696;10.358;2022-09-14T02:54:19;99541.56;;;20.39;100.00
74524;BME280;63074;44.696;10.358;2022-09-14T02:56:48;99538.31;;;20.37;100.00
74524;BME280;63074;44.696;10.358;2022-09-14T02:59:13;99538.31;;;20.37;100.00
74524;BME280;63074;44.696;10.358;2022-09-14T03:01:39;99545.69;;;20.36;100.00
74524;BME280;63074;44.696;10.358;2022-09-14T03:04:04;99550.06;;;20.15;100.00
74524;BME280;63074;44.696;10.358;2022-09-14T03:06:29;99544.16;;;20.21;100.00
74524;BME280;63074;44.696;10.358;2022-09-14T03:08:55;99538.03;;;19.94;100.00
74524;BME280;63074;44.696;10.358;2022-09-14T03:11:20;99537.06;;;19.89;100.00
74524;BME280;63074;44.696;10.358;2022-09-14T03:13:46;99527.69;;;19.82;100.00
74524;BME280;63074;44.696;10.358;2022-09-14T03:16:14;99523.38;;;19.67;100.00
74524;BME280;63074;44.696;10.358;2022-09-14T03:18:40;99526.31;;;19.71;100.00
74524;BME280;63074;44.696;10.358;2022-09-14T03:21:11;99537.28;;;19.79;100.00
74524;BME280;63074;44.696;10.358;2022-09-14T03:23:42;99538.28;;;19.83;100.00
74524;BME280;63074;44.696;10.358;2022-09-14T03:26:15;99535.16;;;19.76;100.00
74524;BME280;63074;44.696;10.358;2022-09-14T03:28:42;99543.34;;;19.76;100.00
74524;BME280;63074;44.696;10.358;2022-09-14T03:31:09;99548.81;;;19.76;100.00
74524;BME280;63074;44.696;10.358;2022-09-14T03:33:35;99540.09;;;19.52;100.00
74524;BME280;63074;44.696;10.358;2022-09-14T03:36:11;99543.97;;;19.73;100.00
74524;BME280;63074;44.696;10.358;2022-09-14T03:38:37;99553.03;;;19.82;100.00
74524;BME280;63074;44.696;10.358;2022-09-14T03:41:09;99549.59;;;19.77;100.00
74524;BME280;63074;44.696;10.358;2022-09-14T03:43:34;99543.16;;;19.73;100.00
74524;BME280;63074;44.696;10.358;2022-09-14T03:46:05;99538.31;;;19.70;100.00
74524;BME280;63074;44.696;10.358;2022-09-14T03:48:31;99541.84;;;19.70;100.00
74524;BME280;63074;44.696;10.358;2022-09-14T03:50:59;99539.69;;;19.59;100.00
74524;BME280;63074;44.696;10.358;2022-09-14T03:53:25;99540.84;;;19.66;100.00
74524;BME280;63074;44.696;10.358;2022-09-14T03:55:51;99537.47;;;19.61;100.00
74524;BME280;63074;44.696;10.358;2022-09-14T03:58:16;99549.03;;;19.66;100.00
74524;BME280;63074;44.696;10.358;2022-09-14T04:00:41;99551.25;;;19.64;100.00
74524;BME280;63074;44.696;10.358;2022-09-14T04:03:07;99537.75;;;19.59;100.00
74524;BME280;63074;44.696;10.358;2022-09-14T04:05:32;99536.66;;;19.60;100.00
74524;BME280;63074;44.696;10.358;2022-09-14T04:07:58;99537.38;;;19.52;100.00
74524;BME280;63074;44.696;10.358;2022-09-14T04:10:24;99549.88;;;19.53;100.00
74524;BME280;63074;44.696;10.358;2022-09-14T04:12:49;99545.72;;;19.42;100.00
74524;BME280;63074;44.696;10.358;2022-09-14T04:15:15;99548.06;;;19.35;100.00
74524;BME280;63074;44.696;10.358;2022-09-14T04:17:41;99542.81;;;19.52;100.00
74524;BME280;63074;44.696;10.358;2022-09-14T04:20:07;99543.03;;;19.55;100.00
74524;BME280;63074;44.696;10.358;2022-09-14T04:22:33;99548.78;;;19.54;100.00
74524;BME280;63074;44.696;10.358;2022-09-14T04:24:58;99554.59;;;19.47;100.00
74524;BME280;63074;44.696;10.358;2022-09-14T04:27:24;99547.03;;;19.44;100.00
74524;BME280;63074;44.696;10.358;2022-09-14T04:29:49;99548.59;;;19.23;100.00
74524;BME280;63074;44.696;10.358;2022-09-14T04:32:15;99543.31;;;19.40;100.00
74524;BME280;63074;44.696;10.358;2022-09-14T04:34:40;99541.22;;;19.51;100.00
74524;BME280;63074;44.696;10.358;2022-09-14T04:37:06;99531.88;;;19.66;100.00
74524;BME280;63074;44.696;10.358;2022-09-14T04:39:31;99535.28;;;19.71;100.00
74524;BME280;63074;44.696;10.358;2022-09-14T04:41:57;99534.97;;;19.73;100.00
74524;BME280;63074;44.696;10.358;2022-09-14T04:44:22;99523.34;;;19.81;100.00
74524;BME280;63074;44.696;10.358;2022-09-14T04:46:48;99521.44;;;19.81;100.00
74524;BME280;63074;44.696;10.358;2022-09-14T04:49:14;99512.13;;;19.82;100.00
74524;BME280;63074;44.696;10.358;2022-09-14T04:51:43;99518.13;;;19.93;100.00
74524;BME280;63074;44.696;10.358;2022-09-14T04:54:12;99501.34;;;19.77;100.00
74524;BME280;63074;44.696;10.358;2022-09-14T04:56:38;99505.09;;;19.68;100.00
74524;BME280;63074;44.696;10.358;2022-09-14T04:59:04;99499.81;;;19.49;100.00
74524;BME280;63074;44.696;10.358;2022-09-14T05:01:35;99497.66;;;19.10;100.00
74524;BME280;63074;44.696;10.358;2022-09-14T05:04:02;99503.94;;;18.97;100.00
74524;BME280;63074;44.696;10.358;2022-09-14T05:06:31;99504.34;;;18.76;100.00
74524;BME280;63074;44.696;10.358;2022-09-14T05:08:58;99500.22;;;18.93;100.00
74524;BME280;63074;44.696;10.358;2022-09-14T05:11:29;99514.28;;;19.22;100.00
74524;BME280;63074;44.696;10.358;2022-09-14T05:14:01;99507.75;;;19.23;100.00
74524;BME280;63074;44.696;10.358;2022-09-14T05:16:31;99505.91;;;19.32;100.00
74524;BME280;63074;44.696;10.358;2022-09-14T05:19:24;99501.22;;;19.46;100.00
74524;BME280;63074;44.696;10.358;2022-09-14T05:22:05;99503.94;;;19.46;100.00
74524;BME280;63074;44.696;10.358;2022-09-14T05:27:28;99511.63;;;19.44;100.00
74524;BME280;63074;44.696;10.358;2022-09-14T05:33:27;99506.00;;;19.77;100.00
74524;BME280;63074;44.696;10.358;2022-09-14T05:36:16;99510.28;;;19.92;100.00
74524;BME280;63074;44.696;10.358;2022-09-14T05:41:47;99489.31;;;20.01;100.00
74524;BME280;63074;44.696;10.358;2022-09-14T05:44:12;99493.41;;;20.12;100.00
74524;BME280;63074;44.696;10.358;2022-09-14T05:46:38;99500.16;;;20.14;100.00
74524;BME280;63074;44.696;10.358;2022-09-14T05:49:04;99510.47;;;20.26;100.00
74524;BME280;63074;44.696;10.358;2022-09-14T05:51:29;99496.84;;;20.26;100.00
74524;BME280;63074;44.696;10.358;2022-09-14T05:53:56;99494.16;;;20.35;100.00
74524;BME280;63074;44.696;10.358;2022-09-14T05:56:26;99494.56;;;20.42;100.00
74524;BME280;63074;44.696;10.358;2022-09-14T05:58:54;99511.00;;;20.59;100.00
74524;BME280;63074;44.696;10.358;2022-09-14T06:01:24;99497.53;;;20.63;100.00
74524;BME280;63074;44.696;10.358;2022-09-14T06:04:10;99493.97;;;20.53;100.00
74524;BME280;63074;44.696;10.358;2022-09-14T06:06:48;99497.53;;;20.63;100.00
74524;BME280;63074;44.696;10.358;2022-09-14T06:09:14;99510.38;;;20.62;100.00
74524;BME280;63074;44.696;10.358;2022-09-14T06:11:42;99510.63;;;20.43;100.00
74524;BME280;63074;44.696;10.358;2022-09-14T06:14:09;99509.44;;;20.67;100.00
74524;BME280;63074;44.696;10.358;2022-09-14T06:16:34;99510.28;;;20.76;100.00
74524;BME280;63074;44.696;10.358;2022-09-14T06:19:00;99516.25;;;20.78;100.00
74524;BME280;63074;44.696;10.358;2022-09-14T06:21:31;99510.44;;;20.79;100.00
74524;BME280;63074;44.696;10.358;2022-09-14T06:24:08;99527.81;;;20.83;100.00
74524;BME280;63074;44.696;10.358;2022-09-14T06:26:39;99525.47;;;20.99;100.00
74524;BME280;63074;44.696;10.358;2022-09-14T06:29:08;99531.59;;;21.13;100.00
74524;BME280;63074;44.696;10.358;2022-09-14T06:31:33;99525.25;;;21.35;100.00
74524;BME280;63074;44.696;10.358;2022-09-14T06:33:59;99522.38;;;21.49;100.00
74524;BME280;63074;44.696;10.358;2022-09-14T06:36:28;99513.03;;;21.67;100.00
74524;BME280;63074;44.696;10.358;2022-09-14T06:38:57;99516.75;;;21.71;100.00
74524;BME280;63074;44.696;10.358;2022-09-14T06:41:31;99526.41;;;21.77;100.00
74524;BME280;63074;44.696;10.358;2022-09-14T06:43:59;99535.09;;;21.88;100.00
74524;BME280;63074;44.696;10.358;2022-09-14T06:46:30;99527.69;;;21.80;100.00
74524;BME280;63074;44.696;10.358;2022-09-14T06:49:10;99530.44;;;21.88;100.00
74524;BME280;63074;44.696;10.358;2022-09-14T06:51:42;99525.28;;;21.87;100.00
74524;BME280;63074;44.696;10.358;2022-09-14T06:54:10;99529.16;;;22.03;100.00
74524;BME280;63074;44.696;10.358;2022-09-14T06:56:39;99528.97;;;22.08;100.00
74524;BME280;63074;44.696;10.358;2022-09-14T06:59:19;99541.53;;;22.18;100.00
74524;BME280;63074;44.696;10.358;2022-09-14T07:01:45;99543.59;;;22.30;100.00
74524;BME280;63074;44.696;10.358;2022-09-14T07:04:14;99545.03;;;22.44;100.00
74524;BME280;63074;44.696;10.358;2022-09-14T07:06:48;99559.66;;;22.48;100.00
74524;BME280;63074;44.696;10.358;2022-09-14T07:09:17;99575.25;;;22.56;100.00
74524;BME280;63074;44.696;10.358;2022-09-14T07:11:43;99608.91;;;22.66;98.96
74524;BME280;63074;44.696;10.358;2022-09-14T07:14:09;99619.19;;;22.77;98.05
74524;BME280;63074;44.696;10.358;2022-09-14T07:16:36;99640.44;;;22.89;97.41
74524;BME280;63074;44.696;10.358;2022-09-14T07:19:04;99644.63;;;22.95;95.18
74524;BME280;63074;44.696;10.358;2022-09-14T07:21:32;99644.75;;;23.07;94.76
74524;BME280;63074;44.696;10.358;2022-09-14T07:24:07;99632.75;;;23.20;92.17
74524;BME280;63074;44.696;10.358;2022-09-14T07:26:37;99656.47;;;23.16;89.96
74524;BME280;63074;44.696;10.358;2022-09-14T07:29:10;99672.47;;;23.06;89.53
74524;BME280;63074;44.696;10.358;2022-09-14T07:31:40;99675.31;;;23.18;89.80
74524;BME280;63074;44.696;10.358;2022-09-14T07:34:06;99684.31;;;23.27;90.74
74524;BME280;63074;44.696;10.358;2022-09-14T07:36:33;99675.03;;;23.49;90.94
74524;BME280;63074;44.696;10.358;2022-09-14T07:39:07;99679.56;;;23.53;87.59
74524;BME280;63074;44.696;10.358;2022-09-14T07:41:34;99679.38;;;23.59;86.73
74524;BME280;63074;44.696;10.358;2022-09-14T07:44:03;99673.97;;;23.71;85.60
74524;BME280;63074;44.696;10.358;2022-09-14T07:46:30;99671.19;;;24.00;83.70
74524;BME280;63074;44.696;10.358;2022-09-14T07:48:59;99666.41;;;24.18;82.12
74524;BME280;63074;44.696;10.358;2022-09-14T07:51:26;99681.41;;;24.20;81.07
74524;BME280;63074;44.696;10.358;2022-09-14T07:53:52;99682.69;;;24.23;80.05
74524;BME280;63074;44.696;10.358;2022-09-14T07:56:18;99688.38;;;24.39;79.25
74524;BME280;63074;44.696;10.358;2022-09-14T07:58:46;99676.88;;;24.25;78.97
74524;BME280;63074;44.696;10.358;2022-09-14T08:01:14;99677.47;;;24.30;79.46
74524;BME280;63074;44.696;10.358;2022-09-14T08:03:42;99675.13;;;24.41;83.36
74524;BME280;63074;44.696;10.358;2022-09-14T08:06:17;99673.50;;;24.40;80.72
74524;BME280;63074;44.696;10.358;2022-09-14T08:08:44;99675.53;;;24.51;81.74
74524;BME280;63074;44.696;10.358;2022-09-14T08:11:17;99675.84;;;24.50;81.63
74524;BME280;63074;44.696;10.358;2022-09-14T08:13:45;99674.97;;;24.37;80.32
74524;BME280;63074;44.696;10.358;2022-09-14T08:16:12;99673.25;;;24.53;79.98
74524;BME280;63074;44.696;10.358;2022-09-14T08:18:38;99680.69;;;24.53;79.88
74524;BME280;63074;44.696;10.358;2022-09-14T08:21:14;99681.47;;;24.53;79.20
74524;BME280;63074;44.696;10.358;2022-09-14T08:23:41;99699.28;;;24.47;79.29
74524;BME280;63074;44.696;10.358;2022-09-14T08:26:12;99703.88;;;24.55;78.18
74524;BME280;63074;44.696;10.358;2022-09-14T08:28:39;99703.03;;;24.43;80.18
74524;BME280;63074;44.696;10.358;2022-09-14T08:31:07;99703.44;;;24.53;80.03
74524;BME280;63074;44.696;10.358;2022-09-14T08:33:36;99706.63;;;24.55;79.44
74524;BME280;63074;44.696;10.358;2022-09-14T08:36:02;99717.91;;;24.63;79.07
74524;BME280;63074;44.696;10.358;2022-09-14T08:38:28;99738.56;;;24.48;79.55
74524;BME280;63074;44.696;10.358;2022-09-14T08:40:55;99764.66;;;24.33;81.14
74524;BME280;63074;44.696;10.358;2022-09-14T08:43:23;99781.03;;;24.21;82.63
74524;BME280;63074;44.696;10.358;2022-09-14T08:45:52;99776.81;;;24.23;82.41
74524;BME280;63074;44.696;10.358;2022-09-14T08:48:25;99791.03;;;24.26;82.79
74524;BME280;63074;44.696;10.358;2022-09-14T08:50:53;99800.16;;;24.38;81.38
74524;BME280;63074;44.696;10.358;2022-09-14T08:53:20;99804.00;;;24.46;80.89
74524;BME280;63074;44.696;10.358;2022-09-14T08:55:55;99805.09;;;24.53;80.79
74524;BME280;63074;44.696;10.358;2022-09-14T09:01:43;99788.03;;;24.60;79.02
74524;BME280;63074;44.696;10.358;2022-09-14T09:07:51;99765.78;;;25.28;77.03
74524;BME280;63074;44.696;10.358;2022-09-14T09:10:20;99760.34;;;25.52;74.95
74524;BME280;63074;44.696;10.358;2022-09-14T09:12:50;99758.38;;;25.40;75.93
74524;BME280;63074;44.696;10.358;2022-09-14T09:15:24;99755.53;;;25.61;74.68
74524;BME280;63074;44.696;10.358;2022-09-14T09:18:01;99757.72;;;25.55;73.75
74524;BME280;63074;44.696;10.358;2022-09-14T09:20:32;99756.81;;;25.76;72.82
74524;BME280;63074;44.696;10.358;2022-09-14T09:26:03;99749.97;;;25.24;74.99
74524;BME280;63074;44.696;10.358;2022-09-14T09:28:30;99749.22;;;25.36;75.75
74524;BME280;63074;44.696;10.358;2022-09-14T09:31:01;99747.44;;;25.19;77.80
74524;BME280;63074;44.696;10.358;2022-09-14T09:33:30;99746.75;;;25.22;77.66
74524;BME280;63074;44.696;10.358;2022-09-14T09:35:56;99735.34;;;25.57;76.23
74524;BME280;63074;44.696;10.358;2022-09-14T09:38:24;99718.06;;;25.81;74.39
74524;BME280;63074;44.696;10.358;2022-09-14T09:40:58;99688.13;;;25.92;75.02
74524;BME280;63074;44.696;10.358;2022-09-14T09:43:25;99674.97;;;25.85;74.35
74524;BME280;63074;44.696;10.358;2022-09-14T09:45:58;99667.97;;;25.87;75.57
74524;BME280;63074;44.696;10.358;2022-09-14T09:51:29;99627.72;;;25.83;76.15
74524;BME280;63074;44.696;10.358;2022-09-14T09:54:07;99605.00;;;25.74;75.66
74524;BME280;63074;44.696;10.358;2022-09-14T09:56:57;99590.13;;;25.63;75.23
74524;BME280;63074;44.696;10.358;2022-09-14T10:00:06;99581.19;;;25.41;75.49
74524;BME280;63074;44.696;10.358;2022-09-14T10:02:33;99572.94;;;25.41;75.66
74524;BME280;63074;44.696;10.358;2022-09-14T10:07:34;99559.63;;;25.43;76.68
74524;BME280;63074;44.696;10.358;2022-09-14T10:10:06;99557.84;;;25.35;77.30
74524;BME280;63074;44.696;10.358;2022-09-14T10:12:33;99553.34;;;25.43;76.26
74524;BME280;63074;44.696;10.358;2022-09-14T10:23:31;99536.28;;;25.25;78.93
74524;BME280;63074;44.696;10.358;2022-09-14T10:28:40;99524.16;;;25.38;77.32
74524;BME280;63074;44.696;10.358;2022-09-14T10:33:40;99523.25;;;25.74;76.08
74524;BME280;63074;44.696;10.358;2022-09-14T10:36:27;99514.06;;;25.82;74.95
74524;BME280;63074;44.696;10.358;2022-09-14T10:41:51;99502.69;;;25.96;73.70
74524;BME280;63074;44.696;10.358;2022-09-14T10:52:52;99495.16;;;26.52;72.56
74524;BME280;63074;44.696;10.358;2022-09-14T10:55:29;99484.56;;;26.54;73.42
74524;BME280;63074;44.696;10.358;2022-09-14T11:00:58;99450.03;;;26.92;73.06
74524;BME280;63074;44.696;10.358;2022-09-14T11:09:27;99422.91;;;26.94;74.33
74524;BME280;63074;44.696;10.358;2022-09-14T11:12:18;99404.13;;;26.65;73.56
74524;BME280;63074;44.696;10.358;2022-09-14T11:15:14;99359.78;;;26.89;72.59
74524;BME280;63074;44.696;10.358;2022-09-14T11:18:13;99354.69;;;27.07;70.93
74524;BME280;63074;44.696;10.358;2022-09-14T11:21:04;99353.59;;;27.69;68.31
74524;BME280;63074;44.696;10.358;2022-09-14T11:26:16;99365.44;;;27.93;68.52
74524;BME280;63074;44.696;10.358;2022-09-14T11:28:50;99366.81;;;28.78;65.87
74524;BME280;63074;44.696;10.358;2022-09-14T11:31:36;99367.06;;;29.55;63.92
74524;BME280;63074;44.696;10.358;2022-09-14T11:34:09;99383.47;;;29.75;62.93
74524;BME280;63074;44.696;10.358;2022-09-14T11:36:43;99406.78;;;30.07;61.75
74524;BME280;63074;44.696;10.358;2022-09-14T11:44:20;99393.19;;;28.00;67.06
74524;BME280;63074;44.696;10.358;2022-09-14T11:46:50;99389.09;;;27.71;68.81
74524;BME280;63074;44.696;10.358;2022-09-14T11:52:03;99381.13;;;28.11;68.20
74524;BME280;63074;44.696;10.358;2022-09-14T11:54:31;99396.13;;;28.56;66.05
74524;BME280;63074;44.696;10.358;2022-09-14T11:57:02;99399.38;;;28.16;67.31
74524;BME280;63074;44.696;10.358;2022-09-14T12:05:26;99387.88;;;29.79;62.03
74524;BME280;63074;44.696;10.358;2022-09-14T12:10:20;99396.63;;;29.48;62.07
74524;BME280;63074;44.696;10.358;2022-09-14T12:12:53;99388.25;;;29.41;62.12
74524;BME280;63074;44.696;10.358;2022-09-14T12:36:02;99393.09;;;31.52;50.93
74524;BME280;63074;44.696;10.358;2022-09-14T12:41:00;99394.06;;;32.88;46.21
74524;BME280;63074;44.696;10.358;2022-09-14T12:51:14;99384.84;;;33.02;46.06
74524;BME280;63074;44.696;10.358;2022-09-14T12:53:43;99390.72;;;33.39;43.20
74524;BME280;63074;44.696;10.358;2022-09-14T13:04:26;99378.72;;;34.15;36.83
74524;BME280;63074;44.696;10.358;2022-09-14T13:06:55;99385.69;;;33.86;36.87
74524;BME280;63074;44.696;10.358;2022-09-14T13:09:24;99387.00;;;34.71;35.57
74524;BME280;63074;44.696;10.358;2022-09-14T13:12:06;99391.66;;;33.88;35.56
74524;BME280;63074;44.696;10.358;2022-09-14T13:14:39;99391.59;;;33.15;36.91
74524;BME280;63074;44.696;10.358;2022-09-14T13:17:13;99386.34;;;33.42;36.25
74524;BME280;63074;44.696;10.358;2022-09-14T13:19:39;99390.59;;;33.61;36.47
74524;BME280;63074;44.696;10.358;2022-09-14T13:22:17;99389.53;;;33.33;35.58
74524;BME280;63074;44.696;10.358;2022-09-14T13:24:47;99381.47;;;33.53;35.45
74524;BME280;63074;44.696;10.358;2022-09-14T13:27:42;99380.06;;;33.06;36.66
74524;BME280;63074;44.696;10.358;2022-09-14T13:30:23;99375.09;;;33.60;36.14
74524;BME280;63074;44.696;10.358;2022-09-14T13:32:53;99374.97;;;33.84;35.12
74524;BME280;63074;44.696;10.358;2022-09-14T13:35:49;99376.47;;;34.00;34.96
74524;BME280;63074;44.696;10.358;2022-09-14T13:38:35;99376.22;;;33.69;34.97
74524;BME280;63074;44.696;10.358;2022-09-14T13:41:14;99382.81;;;34.00;34.88
74524;BME280;63074;44.696;10.358;2022-09-14T13:43:52;99376.47;;;34.93;34.01
74524;BME280;63074;44.696;10.358;2022-09-14T13:46:20;99383.09;;;34.65;34.07
74524;BME280;63074;44.696;10.358;2022-09-14T13:48:47;99374.72;;;33.54;34.88
74524;BME280;63074;44.696;10.358;2022-09-14T13:51:13;99390.28;;;34.14;34.74
74524;BME280;63074;44.696;10.358;2022-09-14T13:53:46;99380.50;;;34.43;34.35
74524;BME280;63074;44.696;10.358;2022-09-14T13:58:45;99390.44;;;33.93;35.86
74524;BME280;63074;44.696;10.358;2022-09-14T14:01:11;99382.91;;;33.86;35.62
74524;BME280;63074;44.696;10.358;2022-09-14T14:03:46;99386.84;;;33.01;37.58
74524;BME280;63074;44.696;10.358;2022-09-14T14:09:02;99391.09;;;33.45;36.83
74524;BME280;63074;44.696;10.358;2022-09-14T14:11:31;99400.69;;;33.33;37.36
74524;BME280;63074;44.696;10.358;2022-09-14T14:17:20;99407.88;;;31.74;41.11
74524;BME280;63074;44.696;10.358;2022-09-14T14:19:47;99414.25;;;31.85;41.37
74524;BME280;63074;44.696;10.358;2022-09-14T14:24:39;99414.84;;;31.33;43.12
74524;BME280;63074;44.696;10.358;2022-09-14T14:27:24;99406.16;;;31.41;43.32
74524;BME280;63074;44.696;10.358;2022-09-14T14:29:51;99414.56;;;30.86;43.52
74524;BME280;63074;44.696;10.358;2022-09-14T14:32:17;99415.56;;;31.15;43.24
74524;BME280;63074;44.696;10.358;2022-09-14T14:34:42;99415.97;;;31.17;43.33
74524;BME280;63074;44.696;10.358;2022-09-14T14:37:07;99416.56;;;30.93;43.41
74524;BME280;63074;44.696;10.358;2022-09-14T14:39:33;99424.44;;;30.80;44.01
74524;BME280;63074;44.696;10.358;2022-09-14T14:42:00;99428.34;;;30.72;44.26
74524;BME280;63074;44.696;10.358;2022-09-14T14:44:27;99418.63;;;31.03;43.78
74524;BME280;63074;44.696;10.358;2022-09-14T14:46:54;99423.25;;;30.81;44.86
74524;BME280;63074;44.696;10.358;2022-09-14T14:49:19;99423.56;;;30.25;46.35
74524;BME280;63074;44.696;10.358;2022-09-14T14:51:45;99418.41;;;30.23;45.76
74524;BME280;63074;44.696;10.358;2022-09-14T14:54:12;99424.22;;;30.11;45.85
74524;BME280;63074;44.696;10.358;2022-09-14T14:56:42;99428.66;;;29.82;46.80
74524;BME280;63074;44.696;10.358;2022-09-14T15:01:47;99421.66;;;29.92;47.04
74524;BME280;63074;44.696;10.358;2022-09-14T15:04:12;99418.75;;;29.48;48.01
74524;BME280;63074;44.696;10.358;2022-09-14T15:06:38;99418.53;;;29.30;48.46
74524;BME280;63074;44.696;10.358;2022-09-14T15:09:08;99437.31;;;29.17;48.92
74524;BME280;63074;44.696;10.358;2022-09-14T15:11:37;99437.97;;;29.07;49.60
74524;BME280;63074;44.696;10.358;2022-09-14T15:14:04;99444.00;;;29.13;49.66
74524;BME280;63074;44.696;10.358;2022-09-14T15:16:30;99460.41;;;29.29;49.62
74524;BME280;63074;44.696;10.358;2022-09-14T15:18:55;99451.38;;;29.05;51.83
74524;BME280;63074;44.696;10.358;2022-09-14T15:21:21;99466.94;;;29.73;49.71
74524;BME280;63074;44.696;10.358;2022-09-14T15:23:47;99458.78;;;29.87;49.22
74524;BME280;63074;44.696;10.358;2022-09-14T15:26:13;99481.41;;;29.93;49.34
74524;BME280;63074;44.696;10.358;2022-09-14T15:28:38;99457.63;;;30.70;47.18
74524;BME280;63074;44.696;10.358;2022-09-14T15:31:04;99456.56;;;30.85;47.03
74524;BME280;63074;44.696;10.358;2022-09-14T15:33:30;99458.03;;;29.90;48.63
74524;BME280;63074;44.696;10.358;2022-09-14T15:35:56;99460.28;;;29.21;52.08
74524;BME280;63074;44.696;10.358;2022-09-14T15:38:22;99462.34;;;28.98;52.92
74524;BME280;63074;44.696;10.358;2022-09-14T15:40:48;99440.75;;;28.81;54.31
74524;BME280;63074;44.696;10.358;2022-09-14T15:43:13;99440.91;;;28.69;54.36
74524;BME280;63074;44.696;10.358;2022-09-14T15:45:39;99442.13;;;28.45;54.17